createdAt,value
2022-12-18T00:00:31.344Z,-5.81
2022-12-18T00:03:00.834Z,-5.76
2022-12-18T00:05:30.449Z,-5.76
2022-12-18T00:08:02.410Z,-5.77
2022-12-18T00:10:32.659Z,-5.74
2022-12-18T00:13:05.167Z,-5.85
2022-12-18T00:15:38.255Z,-5.77
2022-12-18T00:18:07.824Z,-5.82
2022-12-18T00:20:40.170Z,-5.79
2022-12-18T00:23:12.114Z,-5.74
2022-12-18T00:25:41.562Z,-5.77
2022-12-18T00:28:10.944Z,-5.78
2022-12-18T00:30:40.316Z,-5.84
2022-12-18T00:33:09.684Z,-5.93
2022-12-18T00:35:39.123Z,-5.99
2022-12-18T00:38:08.527Z,-6.03
2022-12-18T00:40:40.549Z,-6.10
2022-12-18T00:43:07.364Z,-6.10
2022-12-18T00:45:37.069Z,-6.15
2022-12-18T00:48:07.233Z,-6.15
2022-12-18T00:50:36.623Z,-5.99
2022-12-18T00:53:06.059Z,-6.02
2022-12-18T00:55:35.869Z,-6.06
2022-12-18T00:58:07.962Z,-6.14
2022-12-18T01:00:37.668Z,-6.19
2022-12-18T01:03:07.894Z,-6.26
2022-12-18T01:05:37.567Z,-6.36
2022-12-18T01:08:07.649Z,-6.35
2022-12-18T01:10:37.134Z,-6.38
2022-12-18T01:13:09.232Z,-6.24
2022-12-18T01:15:39.686Z,-6.21
2022-12-18T01:18:09.574Z,-6.13
2022-12-18T01:20:38.966Z,-6.12
2022-12-18T01:23:08.426Z,-6.04
2022-12-18T01:25:39.855Z,-6.07
2022-12-18T01:28:12.144Z,-6.03
2022-12-18T01:30:42.039Z,-5.99
2022-12-18T01:33:11.594Z,-6.07
2022-12-18T01:35:44.599Z,-6.10
2022-12-18T01:38:14.025Z,-6.24
2022-12-18T01:40:43.470Z,-6.38
2022-12-18T01:43:15.669Z,-6.48
2022-12-18T01:45:45.194Z,-6.51
2022-12-18T01:48:14.764Z,-6.58
2022-12-18T01:50:46.246Z,-6.66
2022-12-18T01:53:19.114Z,-6.66
2022-12-18T01:55:51.102Z,-6.62
2022-12-18T01:58:24.153Z,-6.59
2022-12-18T02:00:53.759Z,-6.69
2022-12-18T02:03:23.306Z,-5.36
2022-12-18T02:05:56.646Z,-4.39
2022-12-18T02:08:29.804Z,-4.03
2022-12-18T02:11:05.359Z,-3.66
2022-12-18T02:13:44.904Z,-4.24
2022-12-18T02:16:21.452Z,-5.40
2022-12-18T02:18:53.504Z,-5.81
2022-12-18T02:21:29.319Z,-5.64
2022-12-18T02:24:02.975Z,-5.76
2022-12-18T02:26:39.020Z,-6.08
2022-12-18T02:29:15.539Z,-6.24
2022-12-18T02:31:49.356Z,-6.38
2022-12-18T02:34:20.191Z,-6.19
2022-12-18T02:36:50.239Z,-6.24
2022-12-18T02:39:20.125Z,-5.99
2022-12-18T02:41:52.428Z,-6.07
2022-12-18T02:44:21.910Z,-5.87
2022-12-18T02:46:54.730Z,-5.18
2022-12-18T02:49:32.684Z,-5.06
2022-12-18T02:52:09.659Z,-4.62
2022-12-18T02:54:54.258Z,-4.78
2022-12-18T02:57:34.500Z,-4.56
2022-12-18T03:00:08.632Z,-3.94
2022-12-18T03:02:43.448Z,-4.21
2022-12-18T03:05:17.167Z,-4.08
2022-12-18T03:07:54.614Z,-4.39
2022-12-18T03:10:28.098Z,-4.38
2022-12-18T03:13:04.952Z,-4.68
2022-12-18T03:15:37.502Z,-4.85
2022-12-18T03:18:10.695Z,-4.76
2022-12-18T03:20:41.386Z,-4.32
2022-12-18T03:23:14.569Z,-4.12
2022-12-18T03:25:46.872Z,-4.43
2022-12-18T03:28:20.720Z,-4.31
2022-12-18T03:30:51.835Z,-4.62
2022-12-18T03:33:23.851Z,-4.69
2022-12-18T03:35:53.668Z,-4.82
2022-12-18T03:38:23.259Z,-5.16
2022-12-18T03:41:00.897Z,-5.31
2022-12-18T03:43:39.569Z,-5.87
2022-12-18T03:46:11.968Z,-6.04
2022-12-18T03:48:43.209Z,-6.26
2022-12-18T03:51:15.001Z,-6.38
2022-12-18T03:53:48.242Z,-5.39
2022-12-18T03:56:18.916Z,-5.63
2022-12-18T03:58:51.896Z,-5.21
2022-12-18T04:01:22.722Z,-5.18
2022-12-18T04:03:53.574Z,-5.42
2022-12-18T04:06:23.266Z,-5.09
2022-12-18T04:08:52.912Z,-5.13
2022-12-18T04:11:22.332Z,-5.10
2022-12-18T04:13:54.439Z,-5.01
2022-12-18T04:16:23.891Z,-5.09
2022-12-18T04:18:53.411Z,-4.94
2022-12-18T04:21:24.132Z,-4.94
2022-12-18T04:23:53.669Z,-4.99
2022-12-18T04:26:23.115Z,-5.17
2022-12-18T04:28:55.126Z,-4.97
2022-12-18T04:31:25.263Z,-5.16
2022-12-18T04:33:54.793Z,-4.99
2022-12-18T04:36:24.231Z,-5.32
2022-12-18T04:38:53.750Z,-5.25
2022-12-18T04:41:23.155Z,-5.20
2022-12-18T04:43:55.238Z,-5.32
2022-12-18T04:46:24.728Z,-5.32
2022-12-18T04:48:55.213Z,-5.04
2022-12-18T04:51:26.630Z,-5.37
2022-12-18T04:53:56.804Z,-5.06
2022-12-18T04:56:27.005Z,-4.52
2022-12-18T04:58:58.977Z,-5.01
2022-12-18T05:01:34.339Z,-4.98
2022-12-18T05:04:04.199Z,-4.91
2022-12-18T05:06:35.314Z,-5.40
2022-12-18T05:09:04.770Z,-5.20
2022-12-18T05:11:35.501Z,-5.01
2022-12-18T05:14:07.774Z,-4.93
2022-12-18T05:16:37.173Z,-5.21
2022-12-18T05:19:06.851Z,-4.90
2022-12-18T05:21:36.319Z,-5.33
2022-12-18T05:24:06.018Z,-5.32
2022-12-18T05:26:35.515Z,-5.39
2022-12-18T05:29:07.522Z,-5.58
2022-12-18T05:31:39.881Z,-5.56
2022-12-18T05:34:09.878Z,-4.10
2022-12-18T05:36:41.012Z,-2.53
2022-12-18T05:39:10.998Z,-2.21
2022-12-18T05:41:40.676Z,-2.20
2022-12-18T05:44:13.841Z,-1.84
2022-12-18T05:46:43.735Z,-1.52
2022-12-18T05:49:13.370Z,-2.18
2022-12-18T05:51:43.130Z,-2.27
2022-12-18T05:54:12.608Z,-2.54
2022-12-18T05:56:48.368Z,-3.09
2022-12-18T05:59:20.751Z,-2.09
2022-12-18T06:01:50.733Z,-2.58
2022-12-18T06:04:20.211Z,-1.52
2022-12-18T06:06:49.783Z,-1.44
2022-12-18T06:09:19.230Z,-1.92
2022-12-18T06:11:49.003Z,-1.41
2022-12-18T06:14:21.132Z,-1.74
2022-12-18T06:16:54.227Z,-1.55
2022-12-18T06:19:23.755Z,-3.57
2022-12-18T06:21:54.187Z,-4.86
2022-12-18T06:24:23.729Z,-5.84
2022-12-18T06:26:53.491Z,-6.12
2022-12-18T06:29:25.700Z,-6.14
2022-12-18T06:31:55.243Z,-6.29
2022-12-18T06:34:26.381Z,-6.41
2022-12-18T06:36:55.823Z,-6.50
2022-12-18T06:39:25.300Z,-6.83
2022-12-18T06:41:54.667Z,-6.83
2022-12-18T06:44:26.785Z,-6.93
2022-12-18T06:46:56.333Z,-7.00
2022-12-18T06:49:30.265Z,-6.97
2022-12-18T06:52:00.112Z,-7.04
2022-12-18T06:54:29.616Z,-7.19
2022-12-18T06:56:59.152Z,-7.23
2022-12-18T06:59:31.219Z,-7.22
2022-12-18T07:02:00.792Z,-7.46
2022-12-18T07:04:32.042Z,-7.36
2022-12-18T07:07:04.010Z,-7.21
2022-12-18T07:09:33.510Z,-7.32
2022-12-18T07:12:02.992Z,-7.51
2022-12-18T07:14:35.312Z,-7.51
2022-12-18T07:17:06.511Z,-7.40
2022-12-18T07:19:36.163Z,-7.59
2022-12-18T07:22:05.792Z,-7.74
2022-12-18T07:24:39.008Z,-7.64
2022-12-18T07:27:08.444Z,-7.62
2022-12-18T07:29:41.704Z,-7.66
2022-12-18T07:32:11.171Z,-7.75
2022-12-18T07:34:42.060Z,-7.65
2022-12-18T07:37:11.720Z,-7.73
2022-12-18T07:39:41.226Z,-7.69
2022-12-18T07:42:23.106Z,-7.71
2022-12-18T07:44:55.225Z,-7.75
2022-12-18T07:47:24.954Z,-5.02
2022-12-18T07:49:54.441Z,-3.32
2022-12-18T07:52:26.223Z,-4.02
2022-12-18T07:54:56.013Z,-3.54
2022-12-18T07:57:49.391Z,-3.59
2022-12-18T08:00:18.939Z,-3.46
2022-12-18T08:02:50.138Z,-3.47
2022-12-18T08:05:21.748Z,-5.38
2022-12-18T08:07:51.344Z,-5.98
2022-12-18T08:10:21.514Z,-6.27
2022-12-18T08:12:53.409Z,-6.35
2022-12-18T08:15:25.556Z,-6.39
2022-12-18T08:17:55.145Z,-6.58
2022-12-18T08:20:24.589Z,-6.76
2022-12-18T08:22:55.229Z,-6.88
2022-12-18T08:25:24.824Z,-6.88
2022-12-18T08:27:54.801Z,-6.83
2022-12-18T08:30:26.889Z,-6.80
2022-12-18T08:32:57.087Z,-6.81
2022-12-18T08:35:28.713Z,-6.98
2022-12-18T08:38:01.120Z,-6.95
2022-12-18T08:40:30.536Z,-6.97
2022-12-18T08:43:12.416Z,-6.93
2022-12-18T08:45:47.498Z,-6.88
2022-12-18T08:48:21.979Z,-6.74
2022-12-18T08:50:57.913Z,-6.79
2022-12-18T08:53:30.361Z,-6.76
2022-12-18T08:56:03.664Z,-6.77
2022-12-18T08:58:33.176Z,-6.76
2022-12-18T09:01:08.189Z,-6.68
2022-12-18T09:03:38.053Z,-6.52
2022-12-18T09:06:08.825Z,-6.47
2022-12-18T09:08:38.552Z,-6.47
2022-12-18T09:11:15.989Z,-6.50
2022-12-18T09:13:45.414Z,-6.68
2022-12-18T09:16:17.452Z,-6.61
2022-12-18T09:18:47.068Z,-6.51
2022-12-18T09:21:18.559Z,-6.41
2022-12-18T09:23:48.150Z,-6.18
2022-12-18T09:26:17.725Z,-6.07
2022-12-18T09:28:47.537Z,-6.02
2022-12-18T09:31:20.486Z,-5.84
2022-12-18T09:33:50.058Z,-5.98
2022-12-18T09:36:21.765Z,-5.91
2022-12-18T09:38:51.522Z,-5.86
2022-12-18T09:41:30.966Z,-5.69
2022-12-18T09:44:04.730Z,-5.73
2022-12-18T09:46:39.481Z,-5.58
2022-12-18T09:49:11.617Z,-5.57
2022-12-18T09:51:44.743Z,-5.47
2022-12-18T09:54:17.526Z,-5.56
2022-12-18T09:56:47.366Z,-5.52
2022-12-18T09:59:24.023Z,-5.50
2022-12-18T10:01:56.150Z,-5.32
2022-12-18T10:04:25.836Z,-5.28
2022-12-18T10:06:59.304Z,-5.25
2022-12-18T10:09:36.276Z,-5.29
2022-12-18T10:12:11.874Z,-5.11
2022-12-18T10:14:48.281Z,-5.08
2022-12-18T10:17:26.407Z,-5.05
2022-12-18T10:19:59.011Z,-4.98
2022-12-18T10:22:43.359Z,-5.04
2022-12-18T10:25:22.577Z,-5.12
2022-12-18T10:27:55.618Z,-5.04
2022-12-18T10:30:26.509Z,-4.94
2022-12-18T10:32:58.740Z,-4.92
2022-12-18T10:35:30.437Z,-4.91
2022-12-18T10:38:04.142Z,-4.87
2022-12-18T10:40:33.644Z,-4.85
2022-12-18T10:43:14.327Z,-4.91
2022-12-18T10:45:44.135Z,-4.89
2022-12-18T10:48:25.572Z,-4.82
2022-12-18T10:51:13.116Z,-4.62
2022-12-18T10:53:45.430Z,-4.59
2022-12-18T10:56:15.058Z,-4.52
2022-12-18T10:58:44.837Z,-4.55
2022-12-18T11:01:16.706Z,-4.43
2022-12-18T11:04:03.664Z,-3.19
2022-12-18T11:06:36.602Z,-1.70
2022-12-18T11:09:13.236Z,-0.84
2022-12-18T11:11:44.097Z,-0.46
2022-12-18T11:14:19.322Z,-1.24
2022-12-18T11:17:24.272Z,-0.23
2022-12-18T11:19:43.715Z,-0.17
2022-12-18T11:22:24.076Z,-0.62
2022-12-18T11:25:30.336Z,-0.35
2022-12-18T11:27:53.588Z,-0.99
2022-12-18T11:30:28.516Z,-1.54
2022-12-18T11:33:04.895Z,-1.33
2022-12-18T11:35:44.113Z,-0.87
2022-12-18T11:38:26.382Z,-2.40
2022-12-18T11:41:00.374Z,-2.60
2022-12-18T11:43:32.968Z,-1.33
2022-12-18T11:46:05.572Z,-1.70
2022-12-18T11:48:38.544Z,-2.82
2022-12-18T11:51:15.296Z,-3.13
2022-12-18T11:53:44.987Z,-3.08
2022-12-18T11:56:30.193Z,-3.24
2022-12-18T11:59:05.971Z,-3.15
2022-12-18T12:01:44.644Z,-3.01
2022-12-18T12:04:28.930Z,-2.98
2022-12-18T12:07:08.567Z,-3.13
2022-12-18T12:09:44.879Z,-2.97
2022-12-18T12:12:29.446Z,-3.06
2022-12-18T12:15:06.003Z,-3.27
2022-12-18T12:17:42.050Z,-3.30
2022-12-18T12:20:17.819Z,-3.17
2022-12-18T12:22:52.886Z,-3.25
2022-12-18T12:25:33.368Z,-3.38
2022-12-18T12:28:11.788Z,-3.44
2022-12-18T12:30:48.122Z,-3.46
2022-12-18T12:33:29.259Z,-3.34
2022-12-18T12:36:05.530Z,-3.22
2022-12-18T12:38:42.935Z,-3.36
2022-12-18T12:41:30.444Z,-3.32
2022-12-18T12:44:02.632Z,-3.27
2022-12-18T12:46:34.416Z,-3.29
2022-12-18T12:49:07.258Z,-3.12
2022-12-18T12:51:39.574Z,-2.85
2022-12-18T12:54:19.252Z,-2.67
2022-12-18T12:56:53.650Z,-2.65
2022-12-18T12:59:30.819Z,-2.61
2022-12-18T13:02:05.284Z,-2.46
2022-12-18T13:04:38.417Z,-2.53
2022-12-18T13:07:13.980Z,-2.66
2022-12-18T13:10:17.241Z,-2.41
2022-12-18T13:13:03.812Z,-2.14
2022-12-18T13:15:44.318Z,-1.99
2022-12-18T13:18:21.515Z,-1.94
2022-12-18T13:20:56.454Z,-2.08
2022-12-18T13:23:33.978Z,-2.25
2022-12-18T13:26:04.193Z,-2.36
2022-12-18T13:29:07.200Z,-2.63
2022-12-18T13:32:17.065Z,-2.61
2022-12-18T13:34:49.291Z,-2.82
2022-12-18T13:37:46.362Z,-2.80
2022-12-18T13:41:00.311Z,-2.87
2022-12-18T13:43:34.512Z,-2.88
2022-12-18T13:46:09.233Z,-2.91
2022-12-18T13:48:41.481Z,-3.08
2022-12-18T13:51:14.555Z,-3.18
2022-12-18T13:53:48.198Z,-3.21
2022-12-18T13:56:19.847Z,-3.22
2022-12-18T13:59:07.867Z,-3.28
2022-12-18T14:01:40.218Z,-3.32
2022-12-18T14:04:14.350Z,-3.25
2022-12-18T14:06:44.099Z,-2.40
2022-12-18T14:09:21.328Z,-0.96
2022-12-18T14:11:52.020Z,-0.65
2022-12-18T14:14:22.754Z,-0.94
2022-12-18T14:16:56.451Z,-1.82
2022-12-18T14:19:26.752Z,-1.64
2022-12-18T14:21:56.354Z,-2.07
2022-12-18T14:24:26.151Z,-1.40
2022-12-18T14:26:55.671Z,-1.50
2022-12-18T14:29:28.523Z,-1.69
2022-12-18T14:32:18.844Z,-1.90
2022-12-18T14:34:49.873Z,-1.31
2022-12-18T14:37:20.960Z,-2.17
2022-12-18T14:39:58.961Z,-1.37
2022-12-18T14:42:29.593Z,-0.78
2022-12-18T14:45:34.821Z,-2.02
2022-12-18T14:48:23.206Z,-2.79
2022-12-18T14:50:59.615Z,-3.14
2022-12-18T14:53:41.972Z,-3.32
2022-12-18T14:56:20.107Z,-3.39
2022-12-18T14:58:51.435Z,-3.54
2022-12-18T15:01:30.353Z,-3.67
2022-12-18T15:04:04.051Z,-3.73
2022-12-18T15:06:38.852Z,-3.58
2022-12-18T15:09:22.328Z,-3.54
2022-12-18T15:11:51.882Z,-3.60
2022-12-18T15:14:35.626Z,-3.94
2022-12-18T15:17:07.777Z,-3.83
2022-12-18T15:19:42.949Z,-3.86
2022-12-18T15:22:30.496Z,-3.64
2022-12-18T15:25:01.236Z,-3.69
2022-12-18T15:27:33.656Z,-3.50
2022-12-18T15:30:19.063Z,-3.80
2022-12-18T15:32:49.905Z,-3.53
2022-12-18T15:35:24.307Z,-3.13
2022-12-18T15:37:54.834Z,-3.61
2022-12-18T15:40:26.581Z,-3.54
2022-12-18T15:43:10.345Z,-3.63
2022-12-18T15:45:39.880Z,-3.65
2022-12-18T15:48:19.624Z,-3.41
2022-12-18T15:50:52.382Z,-3.61
2022-12-18T15:53:22.363Z,-3.56
2022-12-18T15:56:04.612Z,-3.78
2022-12-18T15:58:34.494Z,-3.95
2022-12-18T16:01:05.370Z,-4.08
2022-12-18T16:03:35.030Z,-4.11
2022-12-18T16:06:07.275Z,-4.26
2022-12-18T16:08:36.761Z,-4.26
2022-12-18T16:11:06.248Z,-4.34
2022-12-18T16:13:35.863Z,-4.48
2022-12-18T16:16:06.100Z,-4.50
2022-12-18T16:18:35.572Z,-4.59
2022-12-18T16:21:09.063Z,-4.64
2022-12-18T16:23:39.697Z,-4.63
2022-12-18T16:26:09.418Z,-4.63
2022-12-18T16:28:41.500Z,-4.68
2022-12-18T16:31:14.751Z,-4.83
2022-12-18T16:33:44.647Z,-4.88
2022-12-18T16:36:17.895Z,-4.91
2022-12-18T16:38:47.427Z,-4.91
2022-12-18T16:41:34.694Z,-5.06
2022-12-18T16:44:04.453Z,-5.07
2022-12-18T16:46:34.392Z,-5.13
2022-12-18T16:49:05.051Z,-5.13
2022-12-18T16:51:37.162Z,-5.06
2022-12-18T16:54:10.913Z,-5.11
2022-12-18T16:56:42.935Z,-5.16
2022-12-18T16:59:14.597Z,-5.20
2022-12-18T17:01:45.710Z,-5.23
2022-12-18T17:04:15.308Z,-5.20
2022-12-18T17:06:51.797Z,-5.22
2022-12-18T17:09:23.371Z,-5.20
2022-12-18T17:11:52.887Z,-5.18
2022-12-18T17:14:26.468Z,-5.16
2022-12-18T17:17:20.368Z,-3.79
2022-12-18T17:19:46.462Z,-3.83
2022-12-18T17:22:18.620Z,-4.26
2022-12-18T17:24:49.006Z,-4.56
2022-12-18T17:27:18.516Z,-4.66
2022-12-18T17:29:49.026Z,-4.93
2022-12-18T17:32:18.833Z,-4.96
2022-12-18T17:34:48.328Z,-4.93
2022-12-18T17:37:20.636Z,-4.85
2022-12-18T17:39:50.058Z,-4.94
2022-12-18T17:42:19.684Z,-4.89
2022-12-18T17:44:49.349Z,-4.94
2022-12-18T17:47:18.791Z,-4.99
2022-12-18T17:49:48.468Z,-5.05
2022-12-18T17:52:20.545Z,-5.02
2022-12-18T17:54:50.103Z,-5.02
2022-12-18T17:57:20.665Z,-5.03
2022-12-18T17:59:52.468Z,-4.94
2022-12-18T18:02:22.971Z,-4.91
2022-12-18T18:04:52.577Z,-4.99
2022-12-18T18:07:24.630Z,-5.01
2022-12-18T18:09:54.258Z,-4.95
2022-12-18T18:12:37.398Z,-4.88
2022-12-18T18:15:08.043Z,-4.82
2022-12-18T18:17:37.571Z,-4.83
2022-12-18T18:20:08.846Z,-4.83
2022-12-18T18:22:41.128Z,-4.90
2022-12-18T18:25:10.607Z,-4.93
2022-12-18T18:27:40.583Z,-4.84
2022-12-18T18:30:12.090Z,-4.80
2022-12-18T18:32:41.504Z,-4.68
2022-12-18T18:35:24.608Z,-4.66
2022-12-18T18:38:04.764Z,-4.75
2022-12-18T18:40:34.213Z,-4.71
2022-12-18T18:43:04.005Z,-4.61
2022-12-18T18:45:35.112Z,-4.64
2022-12-18T18:48:04.594Z,-4.69
2022-12-18T18:50:34.458Z,-4.69
2022-12-18T18:53:06.560Z,-4.73
2022-12-18T18:55:36.155Z,-4.73
2022-12-18T18:58:05.749Z,-4.74
2022-12-18T19:00:37.203Z,-4.69
2022-12-18T19:03:07.169Z,-4.63
2022-12-18T19:05:37.404Z,-4.67
2022-12-18T19:08:10.500Z,-4.59
2022-12-18T19:10:42.936Z,-4.63
2022-12-18T19:13:25.125Z,-4.56
2022-12-18T19:15:56.640Z,-4.52
2022-12-18T19:18:27.224Z,-4.47
2022-12-18T19:21:00.690Z,-4.49
2022-12-18T19:23:34.675Z,-4.53
2022-12-18T19:26:26.927Z,-4.53
2022-12-18T19:28:54.191Z,-4.48
2022-12-18T19:31:31.828Z,-4.50
2022-12-18T19:34:05.002Z,-4.03
2022-12-18T19:36:38.268Z,-3.86
2022-12-18T19:39:13.948Z,-4.04
2022-12-18T19:41:44.057Z,-4.02
2022-12-18T19:44:14.219Z,-4.08
2022-12-18T19:46:46.153Z,-4.18
2022-12-18T19:49:18.005Z,-4.12
2022-12-18T19:51:48.234Z,-4.07
2022-12-18T19:54:22.440Z,-4.17
2022-12-18T19:56:52.955Z,-3.98
2022-12-18T19:59:22.698Z,-3.94
2022-12-18T20:01:54.315Z,-4.02
2022-12-18T20:04:24.080Z,-3.98
2022-12-18T20:06:56.237Z,-4.20
2022-12-18T20:09:28.452Z,-4.16
2022-12-18T20:11:58.203Z,-4.22
2022-12-18T20:14:27.925Z,-4.27
2022-12-18T20:16:58.506Z,-4.31
2022-12-18T20:19:30.064Z,-4.26
2022-12-18T20:21:59.823Z,-4.22
2022-12-18T20:24:31.978Z,-4.21
2022-12-18T20:27:01.831Z,-4.26
2022-12-18T20:29:31.324Z,-4.22
2022-12-18T20:32:00.927Z,-4.22
2022-12-18T20:34:30.553Z,-4.17
2022-12-18T20:37:00.404Z,-4.15
2022-12-18T20:39:32.436Z,-4.21
2022-12-18T20:42:02.133Z,-4.20
2022-12-18T20:44:32.017Z,-4.18
2022-12-18T20:47:05.188Z,-4.10
2022-12-18T20:49:38.373Z,-4.10
2022-12-18T20:52:11.226Z,-4.11
2022-12-18T20:54:43.287Z,-4.17
2022-12-18T20:57:12.828Z,-4.15
2022-12-18T20:59:47.955Z,-4.12
2022-12-18T21:02:18.291Z,-4.10
2022-12-18T21:04:48.008Z,-4.10
2022-12-18T21:07:17.531Z,-4.07
2022-12-18T21:09:49.622Z,-4.07
2022-12-18T21:12:44.916Z,-4.03
2022-12-18T21:15:22.833Z,-4.05
2022-12-18T21:17:56.289Z,-4.11
2022-12-18T21:20:25.799Z,-4.09
2022-12-18T21:22:57.683Z,-4.10
2022-12-18T21:25:35.589Z,-4.07
2022-12-18T21:28:05.104Z,-4.01
2022-12-18T21:30:34.865Z,-4.08
2022-12-18T21:33:04.311Z,-4.08
2022-12-18T21:35:33.880Z,-4.10
2022-12-18T21:38:04.337Z,-4.09
2022-12-18T21:40:37.883Z,-4.09
2022-12-18T21:43:19.948Z,-4.05
2022-12-18T21:45:49.494Z,-3.97
2022-12-18T21:48:19.030Z,-3.97
2022-12-18T21:50:48.431Z,-4.09
2022-12-18T21:53:17.874Z,-4.12
2022-12-18T21:55:49.927Z,-4.12
2022-12-18T21:58:19.549Z,-4.15
2022-12-18T22:00:49.057Z,-4.17
2022-12-18T22:03:19.365Z,-4.08
2022-12-18T22:05:51.450Z,-4.08
2022-12-18T22:08:37.036Z,-4.04
2022-12-18T22:11:15.336Z,-4.19
2022-12-18T22:13:46.840Z,-4.21
2022-12-18T22:16:16.413Z,-4.21
2022-12-18T22:18:45.961Z,-4.13
2022-12-18T22:21:29.423Z,-4.08
2022-12-18T22:24:00.366Z,-4.05
2022-12-18T22:26:39.445Z,-4.07
2022-12-18T22:29:23.264Z,-4.09
2022-12-18T22:31:53.219Z,-4.07
2022-12-18T22:34:23.305Z,-4.05
2022-12-18T22:36:53.163Z,-4.00
2022-12-18T22:39:24.879Z,-4.03
2022-12-18T22:41:57.003Z,-4.10
2022-12-18T22:44:26.620Z,-4.02
2022-12-18T22:47:05.928Z,-3.99
2022-12-18T22:49:36.523Z,-4.04
2022-12-18T22:52:06.223Z,-4.05
2022-12-18T22:54:35.776Z,-3.96
2022-12-18T22:57:07.864Z,-3.96
2022-12-18T22:59:37.277Z,-3.96
2022-12-18T23:02:07.229Z,-3.95
2022-12-18T23:04:37.116Z,-3.86
2022-12-18T23:07:07.087Z,-3.88
2022-12-18T23:09:36.888Z,-3.95
2022-12-18T23:12:09.887Z,-4.01
2022-12-18T23:14:39.644Z,-3.94
2022-12-18T23:17:09.193Z,-3.91
2022-12-18T23:19:44.062Z,-3.90
2022-12-18T23:22:17.381Z,-3.87
2022-12-18T23:24:46.938Z,-3.86
2022-12-18T23:27:18.953Z,-3.89
2022-12-18T23:29:48.483Z,-4.00
2022-12-18T23:32:18.860Z,-3.98
2022-12-18T23:34:48.298Z,-3.95
2022-12-18T23:37:49.902Z,-3.90
2022-12-18T23:40:10.105Z,-3.99
2022-12-18T23:42:42.128Z,-3.96
2022-12-18T23:45:17.567Z,-3.98
2022-12-18T23:47:48.260Z,-4.01
2022-12-18T23:50:23.601Z,-4.07
2022-12-18T23:53:02.150Z,-3.99
2022-12-18T23:55:34.773Z,-3.95
2022-12-18T23:58:06.840Z,-4.00
